sensor_id;sensor_type;location;lat;lon;timestamp;pressure;altitude;pressure_sealevel;temperature;humidity
30682;BME280;17439;48.092;11.842;2023-02-19T00:01:20;95853.72;;;13.73;49.93
30682;BME280;17439;48.092;11.842;2023-02-19T00:03:49;95854.84;;;13.72;49.93
30682;BME280;17439;48.092;11.842;2023-02-19T00:06:17;95839.91;;;13.69;50.09
30682;BME280;17439;48.092;11.842;2023-02-19T00:08:44;95838.16;;;13.56;49.91
30682;BME280;17439;48.092;11.842;2023-02-19T00:11:17;95833.03;;;13.63;50.33
30682;BME280;17439;48.092;11.842;2023-02-19T00:13:45;95838.47;;;13.63;50.07
30682;BME280;17439;48.092;11.842;2023-02-19T00:16:35;95840.72;;;13.61;49.75
30682;BME280;17439;48.092;11.842;2023-02-19T00:19:09;95831.44;;;13.62;50.19
30682;BME280;17439;48.092;11.842;2023-02-19T00:21:37;95833.03;;;13.63;50.12
30682;BME280;17439;48.092;11.842;2023-02-19T00:24:05;95829.81;;;13.61;50.06
30682;BME280;17439;48.092;11.842;2023-02-19T00:26:32;95830.78;;;13.56;50.20
30682;BME280;17439;48.092;11.842;2023-02-19T00:29:00;95822.94;;;13.55;50.38
30682;BME280;17439;48.092;11.842;2023-02-19T00:31:29;95819.41;;;13.54;50.31
30682;BME280;17439;48.092;11.842;2023-02-19T00:34:04;95825.19;;;13.53;50.36
30682;BME280;17439;48.092;11.842;2023-02-19T00:36:33;95826.81;;;13.54;50.71
30682;BME280;17439;48.092;11.842;2023-02-19T00:38:59;95817.50;;;13.55;50.56
30682;BME280;17439;48.092;11.842;2023-02-19T00:41:26;95827.59;;;13.54;50.77
30682;BME280;17439;48.092;11.842;2023-02-19T00:44:12;95826.63;;;13.50;50.35
30682;BME280;17439;48.092;11.842;2023-02-19T00:46:44;95830.16;;;13.51;50.48
30682;BME280;17439;48.092;11.842;2023-02-19T00:49:20;95826.31;;;13.52;50.40
30682;BME280;17439;48.092;11.842;2023-02-19T00:51:49;95822.78;;;13.51;50.93
30682;BME280;17439;48.092;11.842;2023-02-19T00:54:16;95815.88;;;13.45;50.63
30682;BME280;17439;48.092;11.842;2023-02-19T00:56:44;95813.97;;;13.46;50.76
30682;BME280;17439;48.092;11.842;2023-02-19T00:59:11;95805.00;;;13.45;50.33
30682;BME280;17439;48.092;11.842;2023-02-19T01:01:37;95802.44;;;13.49;50.59
30682;BME280;17439;48.092;11.842;2023-02-19T01:04:04;95798.13;;;13.48;50.70
30682;BME280;17439;48.092;11.842;2023-02-19T01:06:32;95802.13;;;13.41;50.85
30682;BME280;17439;48.092;11.842;2023-02-19T01:08:59;95796.03;;;13.45;51.01
30682;BME280;17439;48.092;11.842;2023-02-19T01:11:25;95790.59;;;13.45;50.94
30682;BME280;17439;48.092;11.842;2023-02-19T01:13:56;95797.28;;;13.47;50.97
30682;BME280;17439;48.092;11.842;2023-02-19T01:16:23;95790.28;;;13.46;51.12
30682;BME280;17439;48.092;11.842;2023-02-19T01:18:50;95787.88;;;13.45;50.65
30682;BME280;17439;48.092;11.842;2023-02-19T01:21:19;95788.34;;;13.47;50.60
30682;BME280;17439;48.092;11.842;2023-02-19T01:23:47;95784.81;;;13.46;50.86
30682;BME280;17439;48.092;11.842;2023-02-19T01:26:20;95788.66;;;13.45;50.94
30682;BME280;17439;48.092;11.842;2023-02-19T01:28:48;95787.03;;;13.44;50.92
30682;BME280;17439;48.092;11.842;2023-02-19T01:31:21;95783.53;;;13.43;50.38
30682;BME280;17439;48.092;11.842;2023-02-19T01:33:53;95769.91;;;13.43;50.79
30682;BME280;17439;48.092;11.842;2023-02-19T01:36:21;95769.91;;;13.43;51.09
30682;BME280;17439;48.092;11.842;2023-02-19T01:38:48;95772.63;;;13.43;51.13
30682;BME280;17439;48.092;11.842;2023-02-19T01:41:17;95772.31;;;13.45;51.16
30682;BME280;17439;48.092;11.842;2023-02-19T01:46:34;95774.09;;;13.41;51.31
30682;BME280;17439;48.092;11.842;2023-02-19T01:49:09;95768.16;;;13.39;50.81
30682;BME280;17439;48.092;11.842;2023-02-19T01:51:40;95763.66;;;13.34;50.99
30682;BME280;17439;48.092;11.842;2023-02-19T01:54:12;95762.56;;;13.35;51.02
30682;BME280;17439;48.092;11.842;2023-02-19T01:56:42;95754.38;;;13.35;51.15
30682;BME280;17439;48.092;11.842;2023-02-19T01:59:11;95757.44;;;13.34;51.47
30682;BME280;17439;48.092;11.842;2023-02-19T02:01:39;95759.34;;;13.33;51.44
30682;BME280;17439;48.092;11.842;2023-02-19T02:04:08;95746.34;;;13.30;51.41
30682;BME280;17439;48.092;11.842;2023-02-19T02:06:42;95745.84;;;13.28;50.82
30682;BME280;17439;48.092;11.842;2023-02-19T02:09:10;95746.34;;;13.30;51.47
30682;BME280;17439;48.092;11.842;2023-02-19T02:11:40;95735.78;;;13.29;51.32
30682;BME280;17439;48.092;11.842;2023-02-19T02:14:07;95742.03;;;13.29;51.37
30682;BME280;17439;48.092;11.842;2023-02-19T02:16:58;95749.72;;;13.27;51.30
30682;BME280;17439;48.092;11.842;2023-02-19T02:20:01;95741.41;;;13.23;51.25
30682;BME280;17439;48.092;11.842;2023-02-19T02:22:51;95733.56;;;13.22;51.19
30682;BME280;17439;48.092;11.842;2023-02-19T02:25:47;95738.50;;;13.20;51.50
30682;BME280;17439;48.092;11.842;2023-02-19T02:28:59;95736.09;;;13.18;51.53
30682;BME280;17439;48.092;11.842;2023-02-19T02:31:35;95734.00;;;13.15;51.58
30682;BME280;17439;48.092;11.842;2023-02-19T02:34:12;95728.56;;;13.15;51.93
30682;BME280;17439;48.092;11.842;2023-02-19T02:36:46;95720.09;;;13.08;52.13
30682;BME280;17439;48.092;11.842;2023-02-19T02:39:18;95724.56;;;13.04;52.72
30682;BME280;17439;48.092;11.842;2023-02-19T02:41:53;95720.25;;;13.03;52.67
30682;BME280;17439;48.092;11.842;2023-02-19T02:44:20;95715.59;;;12.95;52.96
30682;BME280;17439;48.092;11.842;2023-02-19T02:46:47;95709.84;;;12.87;53.25
30682;BME280;17439;48.092;11.842;2023-02-19T02:49:20;95728.53;;;12.80;53.53
30682;BME280;17439;48.092;11.842;2023-02-19T02:51:52;95729.00;;;12.74;53.83
30682;BME280;17439;48.092;11.842;2023-02-19T02:54:27;95722.63;;;12.69;54.13
30682;BME280;17439;48.092;11.842;2023-02-19T02:56:58;95719.72;;;12.66;54.47
30682;BME280;17439;48.092;11.842;2023-02-19T02:59:31;95716.38;;;12.60;55.10
30682;BME280;17439;48.092;11.842;2023-02-19T03:02:28;95707.53;;;12.55;55.38
30682;BME280;17439;48.092;11.842;2023-02-19T03:05:03;95697.63;;;12.50;55.85
30682;BME280;17439;48.092;11.842;2023-02-19T03:07:38;95692.66;;;12.43;56.90
30682;BME280;17439;48.092;11.842;2023-02-19T03:10:10;95705.41;;;12.34;56.94
30682;BME280;17439;48.092;11.842;2023-02-19T03:12:39;95695.00;;;12.27;57.57
30682;BME280;17439;48.092;11.842;2023-02-19T03:15:09;95686.16;;;12.13;58.05
30682;BME280;17439;48.092;11.842;2023-02-19T03:17:43;95690.28;;;12.02;58.93
30682;BME280;17439;48.092;11.842;2023-02-19T03:20:15;95684.91;;;11.88;59.08
30682;BME280;17439;48.092;11.842;2023-02-19T03:22:45;95689.81;;;11.77;59.47
30682;BME280;17439;48.092;11.842;2023-02-19T03:25:19;95679.25;;;11.67;60.63
30682;BME280;17439;48.092;11.842;2023-02-19T03:27:48;95687.97;;;11.55;61.79
30682;BME280;17439;48.092;11.842;2023-02-19T03:30:18;95694.94;;;11.47;62.42
30682;BME280;17439;48.092;11.842;2023-02-19T03:35:23;95692.53;;;11.23;65.25
30682;BME280;17439;48.092;11.842;2023-02-19T03:38:08;95703.53;;;11.18;64.58
30682;BME280;17439;48.092;11.842;2023-02-19T03:40:50;95697.44;;;11.12;64.47
30682;BME280;17439;48.092;11.842;2023-02-19T03:43:23;95700.56;;;11.05;65.00
30682;BME280;17439;48.092;11.842;2023-02-19T03:48:32;95712.97;;;10.98;65.96
30682;BME280;17439;48.092;11.842;2023-02-19T03:51:52;95699.00;;;10.91;66.13
30682;BME280;17439;48.092;11.842;2023-02-19T03:56:42;95702.66;;;10.72;68.23
30682;BME280;17439;48.092;11.842;2023-02-19T03:59:13;95713.31;;;10.68;68.50
30682;BME280;17439;48.092;11.842;2023-02-19T04:01:49;95695.56;;;10.62;69.63
30682;BME280;17439;48.092;11.842;2023-02-19T04:04:25;95693.88;;;10.52;70.93
30682;BME280;17439;48.092;11.842;2023-02-19T04:06:54;95691.91;;;10.44;71.03
30682;BME280;17439;48.092;11.842;2023-02-19T04:09:25;95697.00;;;10.46;70.85
30682;BME280;17439;48.092;11.842;2023-02-19T04:12:00;95671.72;;;10.37;71.31
30682;BME280;17439;48.092;11.842;2023-02-19T04:14:38;95701.44;;;10.42;70.87
30682;BME280;17439;48.092;11.842;2023-02-19T04:17:09;95699.94;;;10.36;71.59
30682;BME280;17439;48.092;11.842;2023-02-19T04:19:39;95702.66;;;10.36;71.86
30682;BME280;17439;48.092;11.842;2023-02-19T04:22:08;95676.75;;;10.29;72.35
30682;BME280;17439;48.092;11.842;2023-02-19T04:24:43;95695.19;;;10.27;72.85
30682;BME280;17439;48.092;11.842;2023-02-19T04:27:12;95687.81;;;10.33;72.43
30682;BME280;17439;48.092;11.842;2023-02-19T04:29:39;95693.31;;;10.28;72.69
30682;BME280;17439;48.092;11.842;2023-02-19T04:32:06;95679.75;;;10.28;72.63
30682;BME280;17439;48.092;11.842;2023-02-19T04:34:35;95702.03;;;10.25;72.93
30682;BME280;17439;48.092;11.842;2023-02-19T04:37:01;95696.09;;;10.23;72.95
30682;BME280;17439;48.092;11.842;2023-02-19T04:39:28;95689.59;;;10.24;72.77
30682;BME280;17439;48.092;11.842;2023-02-19T04:41:55;95691.81;;;10.22;72.79
30682;BME280;17439;48.092;11.842;2023-02-19T04:44:21;95711.84;;;10.21;73.19
30682;BME280;17439;48.092;11.842;2023-02-19T04:46:48;95709.63;;;10.23;72.91
30682;BME280;17439;48.092;11.842;2023-02-19T04:49:14;95711.06;;;10.20;72.95
30682;BME280;17439;48.092;11.842;2023-02-19T04:51:41;95697.31;;;10.16;73.00
30682;BME280;17439;48.092;11.842;2023-02-19T04:54:08;95702.13;;;10.20;73.05
30682;BME280;17439;48.092;11.842;2023-02-19T04:56:34;95718.19;;;10.16;72.97
30682;BME280;17439;48.092;11.842;2023-02-19T04:59:01;95708.16;;;10.16;73.10
30682;BME280;17439;48.092;11.842;2023-02-19T05:01:28;95708.16;;;10.16;73.08
30682;BME280;17439;48.092;11.842;2023-02-19T05:03:54;95704.44;;;10.12;73.36
30682;BME280;17439;48.092;11.842;2023-02-19T05:06:21;95717.69;;;10.14;73.32
30682;BME280;17439;48.092;11.842;2023-02-19T05:08:48;95713.59;;;10.16;73.30
30682;BME280;17439;48.092;11.842;2023-02-19T05:11:14;95713.88;;;10.15;73.05
30682;BME280;17439;48.092;11.842;2023-02-19T05:13:41;95714.69;;;10.15;72.90
30682;BME280;17439;48.092;11.842;2023-02-19T05:16:12;95719.69;;;10.22;72.81
30682;BME280;17439;48.092;11.842;2023-02-19T05:18:39;95716.19;;;10.22;72.88
30682;BME280;17439;48.092;11.842;2023-02-19T05:21:06;95728.59;;;10.23;72.74
30682;BME280;17439;48.092;11.842;2023-02-19T05:23:34;95728.84;;;10.26;72.74
30682;BME280;17439;48.092;11.842;2023-02-19T05:26:10;95726.72;;;10.23;71.68
30682;BME280;17439;48.092;11.842;2023-02-19T05:28:37;95724.69;;;10.29;72.74
30682;BME280;17439;48.092;11.842;2023-02-19T05:31:06;95727.09;;;10.30;72.33
30682;BME280;17439;48.092;11.842;2023-02-19T05:33:34;95723.31;;;10.31;72.03
30682;BME280;17439;48.092;11.842;2023-02-19T05:36:05;95728.72;;;10.31;72.05
30682;BME280;17439;48.092;11.842;2023-02-19T05:38:32;95738.19;;;10.34;72.35
30682;BME280;17439;48.092;11.842;2023-02-19T05:41:10;95736.28;;;10.34;71.56
30682;BME280;17439;48.092;11.842;2023-02-19T05:43:41;95740.59;;;10.36;71.23
30682;BME280;17439;48.092;11.842;2023-02-19T05:46:10;95741.88;;;10.38;72.21
30682;BME280;17439;48.092;11.842;2023-02-19T05:48:37;95743.41;;;10.44;72.02
30682;BME280;17439;48.092;11.842;2023-02-19T05:51:06;95746.09;;;10.44;71.84
30682;BME280;17439;48.092;11.842;2023-02-19T05:53:34;95752.31;;;10.45;71.89
30682;BME280;17439;48.092;11.842;2023-02-19T05:56:02;95733.16;;;10.41;71.52
30682;BME280;17439;48.092;11.842;2023-02-19T05:58:29;95743.69;;;10.43;71.60
30682;BME280;17439;48.092;11.842;2023-02-19T06:00:55;95754.22;;;10.44;71.53
30682;BME280;17439;48.092;11.842;2023-02-19T06:03:22;95754.44;;;10.48;71.64
30682;BME280;17439;48.092;11.842;2023-02-19T06:05:49;95745.19;;;10.49;71.08
30682;BME280;17439;48.092;11.842;2023-02-19T06:08:15;95751.94;;;10.51;71.52
30682;BME280;17439;48.092;11.842;2023-02-19T06:10:42;95759.75;;;10.53;71.49
30682;BME280;17439;48.092;11.842;2023-02-19T06:13:09;95753.53;;;10.52;71.38
30682;BME280;17439;48.092;11.842;2023-02-19T06:15:36;95760.44;;;10.59;71.52
30682;BME280;17439;48.092;11.842;2023-02-19T06:18:03;95747.97;;;10.58;70.68
30682;BME280;17439;48.092;11.842;2023-02-19T06:20:30;95767.19;;;10.61;71.11
30682;BME280;17439;48.092;11.842;2023-02-19T06:22:56;95759.25;;;10.65;71.08
30682;BME280;17439;48.092;11.842;2023-02-19T06:25:23;95763.03;;;10.64;70.88
30682;BME280;17439;48.092;11.842;2023-02-19T06:27:49;95765.44;;;10.65;71.00
30682;BME280;17439;48.092;11.842;2023-02-19T06:30:16;95768.69;;;10.67;71.00
30682;BME280;17439;48.092;11.842;2023-02-19T06:32:43;95774.09;;;10.67;70.80
30682;BME280;17439;48.092;11.842;2023-02-19T06:35:09;95773.88;;;10.64;69.64
30682;BME280;17439;48.092;11.842;2023-02-19T06:37:36;95785.75;;;10.68;70.46
30682;BME280;17439;48.092;11.842;2023-02-19T06:40:03;95797.38;;;10.68;70.27
30682;BME280;17439;48.092;11.842;2023-02-19T06:42:31;95794.88;;;10.72;70.29
30682;BME280;17439;48.092;11.842;2023-02-19T06:44:57;95795.38;;;10.74;70.50
30682;BME280;17439;48.092;11.842;2023-02-19T06:47:24;95805.63;;;10.77;70.07
30682;BME280;17439;48.092;11.842;2023-02-19T06:49:50;95803.81;;;10.73;69.12
30682;BME280;17439;48.092;11.842;2023-02-19T06:52:17;95797.28;;;10.74;69.46
30682;BME280;17439;48.092;11.842;2023-02-19T06:54:44;95795.56;;;10.78;69.75
30682;BME280;17439;48.092;11.842;2023-02-19T06:57:10;95798.47;;;10.81;69.90
30682;BME280;17439;48.092;11.842;2023-02-19T06:59:37;95808.72;;;10.84;69.75
30682;BME280;17439;48.092;11.842;2023-02-19T07:02:03;95811.72;;;10.83;69.62
30682;BME280;17439;48.092;11.842;2023-02-19T07:04:30;95812.25;;;10.85;69.69
30682;BME280;17439;48.092;11.842;2023-02-19T07:06:57;95815.75;;;10.85;69.18
30682;BME280;17439;48.092;11.842;2023-02-19T07:09:23;95822.16;;;10.89;69.57
30682;BME280;17439;48.092;11.842;2023-02-19T07:11:50;95822.09;;;10.95;69.68
30682;BME280;17439;48.092;11.842;2023-02-19T07:14:17;95840.53;;;10.93;68.98
30682;BME280;17439;48.092;11.842;2023-02-19T07:16:43;95830.22;;;10.95;69.15
30682;BME280;17439;48.092;11.842;2023-02-19T07:19:10;95824.69;;;11.00;69.22
30682;BME280;17439;48.092;11.842;2023-02-19T07:21:37;95836.53;;;11.04;69.07
30682;BME280;17439;48.092;11.842;2023-02-19T07:24:04;95842.16;;;11.07;69.43
30682;BME280;17439;48.092;11.842;2023-02-19T07:26:31;95843.25;;;11.06;69.00
30682;BME280;17439;48.092;11.842;2023-02-19T07:28:57;95839.13;;;11.09;68.66
30682;BME280;17439;48.092;11.842;2023-02-19T07:31:24;95836.59;;;11.13;69.12
30682;BME280;17439;48.092;11.842;2023-02-19T07:33:51;95851.38;;;11.20;69.50
30682;BME280;17439;48.092;11.842;2023-02-19T07:36:20;95841.81;;;11.23;69.16
30682;BME280;17439;48.092;11.842;2023-02-19T07:38:52;95843.91;;;11.26;67.94
30682;BME280;17439;48.092;11.842;2023-02-19T07:41:19;95856.38;;;11.27;68.95
30682;BME280;17439;48.092;11.842;2023-02-19T07:43:46;95860.00;;;11.22;68.10
30682;BME280;17439;48.092;11.842;2023-02-19T07:46:13;95848.41;;;11.31;68.68
30682;BME280;17439;48.092;11.842;2023-02-19T07:48:41;95846.41;;;11.36;68.46
30682;BME280;17439;48.092;11.842;2023-02-19T07:51:11;95851.84;;;11.36;68.26
30682;BME280;17439;48.092;11.842;2023-02-19T07:53:38;95860.16;;;11.40;69.38
30682;BME280;17439;48.092;11.842;2023-02-19T07:56:06;95866.00;;;11.47;68.81
30682;BME280;17439;48.092;11.842;2023-02-19T07:58:33;95867.81;;;11.38;67.20
30682;BME280;17439;48.092;11.842;2023-02-19T08:01:12;95875.22;;;11.46;68.61
30682;BME280;17439;48.092;11.842;2023-02-19T08:03:40;95883.56;;;11.50;69.37
30682;BME280;17439;48.092;11.842;2023-02-19T08:06:07;95892.53;;;11.50;68.92
30682;BME280;17439;48.092;11.842;2023-02-19T08:08:34;95890.78;;;11.54;69.22
30682;BME280;17439;48.092;11.842;2023-02-19T08:11:02;95892.59;;;11.59;69.01
30682;BME280;17439;48.092;11.842;2023-02-19T08:13:29;95908.31;;;11.48;67.03
30682;BME280;17439;48.092;11.842;2023-02-19T08:18:47;95903.94;;;11.61;68.52
30682;BME280;17439;48.092;11.842;2023-02-19T08:21:14;95909.78;;;11.68;68.85
30682;BME280;17439;48.092;11.842;2023-02-19T08:23:41;95906.56;;;11.66;68.52
30682;BME280;17439;48.092;11.842;2023-02-19T08:26:08;95913.59;;;11.67;68.23
30682;BME280;17439;48.092;11.842;2023-02-19T08:28:34;95913.88;;;11.66;67.32
30682;BME280;17439;48.092;11.842;2023-02-19T08:31:03;95917.13;;;11.68;67.70
30682;BME280;17439;48.092;11.842;2023-02-19T08:33:30;95906.56;;;11.66;67.67
30682;BME280;17439;48.092;11.842;2023-02-19T08:36:01;95910.88;;;11.67;67.03
30682;BME280;17439;48.092;11.842;2023-02-19T08:38:27;95917.44;;;11.66;67.50
30682;BME280;17439;48.092;11.842;2023-02-19T08:40:54;95912.78;;;11.67;67.96
30682;BME280;17439;48.092;11.842;2023-02-19T08:43:21;95927.88;;;11.73;66.92
30682;BME280;17439;48.092;11.842;2023-02-19T08:45:47;95928.66;;;11.73;66.79
30682;BME280;17439;48.092;11.842;2023-02-19T08:48:14;95928.47;;;11.70;67.36
30682;BME280;17439;48.092;11.842;2023-02-19T08:50:40;95929.25;;;11.70;67.73
30682;BME280;17439;48.092;11.842;2023-02-19T08:53:07;95941.13;;;11.74;67.47
30682;BME280;17439;48.092;11.842;2023-02-19T08:55:36;95928.34;;;11.75;66.78
30682;BME280;17439;48.092;11.842;2023-02-19T08:58:03;95936.38;;;11.80;66.51
30682;BME280;17439;48.092;11.842;2023-02-19T09:00:29;95937.50;;;11.79;66.41
30682;BME280;17439;48.092;11.842;2023-02-19T09:02:57;95951.19;;;11.74;66.89
30682;BME280;17439;48.092;11.842;2023-02-19T09:05:23;95956.00;;;11.77;66.58
30682;BME280;17439;48.092;11.842;2023-02-19T09:07:50;95952.31;;;11.73;66.25
30682;BME280;17439;48.092;11.842;2023-02-19T09:10:16;95947.00;;;11.68;66.21
30682;BME280;17439;48.092;11.842;2023-02-19T09:12:43;95956.06;;;11.63;65.81
30682;BME280;17439;48.092;11.842;2023-02-19T09:15:10;95945.28;;;11.58;65.75
30682;BME280;17439;48.092;11.842;2023-02-19T09:17:36;95948.31;;;11.56;65.81
30682;BME280;17439;48.092;11.842;2023-02-19T09:20:03;95945.69;;;11.51;63.58
30682;BME280;17439;48.092;11.842;2023-02-19T09:22:30;95960.41;;;11.50;65.30
30682;BME280;17439;48.092;11.842;2023-02-19T09:24:56;95949.03;;;11.48;65.05
30682;BME280;17439;48.092;11.842;2023-02-19T09:27:23;95944.31;;;11.40;65.50
30682;BME280;17439;48.092;11.842;2023-02-19T09:29:49;95934.88;;;11.37;64.30
30682;BME280;17439;48.092;11.842;2023-02-19T09:32:16;95942.22;;;11.37;64.59
30682;BME280;17439;48.092;11.842;2023-02-19T09:34:44;95943.22;;;11.27;62.51
30682;BME280;17439;48.092;11.842;2023-02-19T09:37:11;95943.22;;;11.41;65.20
30682;BME280;17439;48.092;11.842;2023-02-19T09:39:37;95955.59;;;11.47;65.84
30682;BME280;17439;48.092;11.842;2023-02-19T09:42:21;95943.91;;;11.47;64.54
30682;BME280;17439;48.092;11.842;2023-02-19T09:44:51;95961.31;;;11.46;65.08
30682;BME280;17439;48.092;11.842;2023-02-19T09:47:25;95962.59;;;11.48;63.75
30682;BME280;17439;48.092;11.842;2023-02-19T09:49:55;95955.66;;;11.42;62.72
30682;BME280;17439;48.092;11.842;2023-02-19T09:52:29;95954.38;;;11.39;63.38
30682;BME280;17439;48.092;11.842;2023-02-19T09:55:01;95967.25;;;11.48;62.29
30682;BME280;17439;48.092;11.842;2023-02-19T09:57:29;95969.16;;;11.33;59.13
30682;BME280;17439;48.092;11.842;2023-02-19T10:00:05;95983.41;;;11.39;59.78
30682;BME280;17439;48.092;11.842;2023-02-19T10:02:36;95957.78;;;11.45;60.29
30682;BME280;17439;48.092;11.842;2023-02-19T10:05:08;95985.03;;;11.40;59.31
30682;BME280;17439;48.092;11.842;2023-02-19T10:07:42;95978.50;;;11.27;56.34
30682;BME280;17439;48.092;11.842;2023-02-19T10:12:44;95983.53;;;11.34;59.30
30682;BME280;17439;48.092;11.842;2023-02-19T10:15:40;96002.94;;;11.27;57.37
30682;BME280;17439;48.092;11.842;2023-02-19T10:18:03;96002.75;;;11.23;57.22
30682;BME280;17439;48.092;11.842;2023-02-19T10:20:30;95986.16;;;11.25;57.81
30682;BME280;17439;48.092;11.842;2023-02-19T10:23:05;95991.00;;;11.28;57.93
30682;BME280;17439;48.092;11.842;2023-02-19T10:25:33;96006.06;;;11.20;57.49
30682;BME280;17439;48.092;11.842;2023-02-19T10:28:01;96023.34;;;11.24;58.53
30682;BME280;17439;48.092;11.842;2023-02-19T10:30:33;95990.47;;;11.26;57.67
30682;BME280;17439;48.092;11.842;2023-02-19T10:33:10;96004.94;;;11.35;57.75
30682;BME280;17439;48.092;11.842;2023-02-19T10:35:53;95998.72;;;11.49;56.62
30682;BME280;17439;48.092;11.842;2023-02-19T10:38:29;95999.91;;;11.56;57.56
30682;BME280;17439;48.092;11.842;2023-02-19T10:41:17;96034.28;;;11.61;57.35
30682;BME280;17439;48.092;11.842;2023-02-19T10:44:06;95991.72;;;11.70;57.13
30682;BME280;17439;48.092;11.842;2023-02-19T10:46:40;95997.88;;;11.76;57.26
30682;BME280;17439;48.092;11.842;2023-02-19T10:49:25;96011.94;;;11.78;55.43
30682;BME280;17439;48.092;11.842;2023-02-19T10:51:55;95998.16;;;11.88;53.49
30682;BME280;17439;48.092;11.842;2023-02-19T10:54:28;95992.63;;;11.93;54.44
30682;BME280;17439;48.092;11.842;2023-02-19T10:59:52;95977.13;;;11.94;51.06
30682;BME280;17439;48.092;11.842;2023-02-19T11:02:20;95987.13;;;12.07;52.47
30682;BME280;17439;48.092;11.842;2023-02-19T11:07:35;95979.19;;;12.33;53.56
30682;BME280;17439;48.092;11.842;2023-02-19T11:10:04;95992.34;;;12.40;52.95
30682;BME280;17439;48.092;11.842;2023-02-19T11:12:32;95984.75;;;12.51;52.24
30682;BME280;17439;48.092;11.842;2023-02-19T11:15:19;95987.81;;;12.58;51.34
30682;BME280;17439;48.092;11.842;2023-02-19T11:17:59;95975.41;;;12.66;50.03
30682;BME280;17439;48.092;11.842;2023-02-19T11:20:29;95972.56;;;12.71;53.02
30682;BME280;17439;48.092;11.842;2023-02-19T11:22:59;95962.81;;;12.79;53.89
30682;BME280;17439;48.092;11.842;2023-02-19T11:25:26;95977.72;;;12.81;52.85
30682;BME280;17439;48.092;11.842;2023-02-19T11:27:55;95963.50;;;12.84;52.42
30682;BME280;17439;48.092;11.842;2023-02-19T11:30:43;95960.63;;;12.89;49.02
30682;BME280;17439;48.092;11.842;2023-02-19T11:35:43;95982.09;;;12.91;51.60
30682;BME280;17439;48.092;11.842;2023-02-19T11:38:11;95982.72;;;12.88;50.50
30682;BME280;17439;48.092;11.842;2023-02-19T11:43:42;95983.84;;;12.87;51.13
30682;BME280;17439;48.092;11.842;2023-02-19T11:48:46;95970.03;;;12.75;49.77
30682;BME280;17439;48.092;11.842;2023-02-19T11:51:37;95973.38;;;12.72;48.61
30682;BME280;17439;48.092;11.842;2023-02-19T12:06:30;95972.03;;;12.60;55.01
30682;BME280;17439;48.092;11.842;2023-02-19T12:11:55;95986.97;;;12.72;53.43
30682;BME280;17439;48.092;11.842;2023-02-19T12:15:02;95978.25;;;12.61;53.77
30682;BME280;17439;48.092;11.842;2023-02-19T12:26:26;95991.31;;;11.77;54.30
30682;BME280;17439;48.092;11.842;2023-02-19T12:29:03;95985.09;;;11.76;55.96
30682;BME280;17439;48.092;11.842;2023-02-19T12:34:40;95980.56;;;11.72;54.46
30682;BME280;17439;48.092;11.842;2023-02-19T12:43:19;95994.81;;;11.91;54.81
30682;BME280;17439;48.092;11.842;2023-02-19T12:46:06;96006.91;;;11.99;54.44
30682;BME280;17439;48.092;11.842;2023-02-19T12:48:44;95984.13;;;12.09;54.26
30682;BME280;17439;48.092;11.842;2023-02-19T12:51:16;96002.59;;;12.21;56.28
30682;BME280;17439;48.092;11.842;2023-02-19T12:54:11;96004.59;;;12.29;55.31
30682;BME280;17439;48.092;11.842;2023-02-19T12:56:49;95994.41;;;12.34;51.17
30682;BME280;17439;48.092;11.842;2023-02-19T12:59:28;96015.72;;;12.41;52.11
30682;BME280;17439;48.092;11.842;2023-02-19T13:02:14;96013.63;;;12.38;50.43
30682;BME280;17439;48.092;11.842;2023-02-19T13:07:27;96026.47;;;12.46;51.21
30682;BME280;17439;48.092;11.842;2023-02-19T13:10:21;96017.44;;;12.37;50.23
30682;BME280;17439;48.092;11.842;2023-02-19T13:12:50;96006.22;;;12.30;51.46
30682;BME280;17439;48.092;11.842;2023-02-19T13:15:30;96022.31;;;12.26;52.16
30682;BME280;17439;48.092;11.842;2023-02-19T13:18:02;96018.22;;;12.15;49.04
30682;BME280;17439;48.092;11.842;2023-02-19T13:20:36;96033.44;;;12.16;50.16
30682;BME280;17439;48.092;11.842;2023-02-19T13:23:14;96028.59;;;12.13;49.36
30682;BME280;17439;48.092;11.842;2023-02-19T13:26:07;96033.66;;;12.06;47.41
30682;BME280;17439;48.092;11.842;2023-02-19T13:31:35;96027.91;;;12.07;48.90
30682;BME280;17439;48.092;11.842;2023-02-19T13:34:27;96029.69;;;12.12;48.82
30682;BME280;17439;48.092;11.842;2023-02-19T13:36:58;96029.41;;;12.13;49.39
30682;BME280;17439;48.092;11.842;2023-02-19T13:39:25;96010.06;;;12.15;48.36
30682;BME280;17439;48.092;11.842;2023-02-19T13:41:57;96010.16;;;12.24;49.73
30682;BME280;17439;48.092;11.842;2023-02-19T13:44:30;96014.28;;;12.21;47.46
30682;BME280;17439;48.092;11.842;2023-02-19T13:46:58;95998.34;;;12.28;50.67
30682;BME280;17439;48.092;11.842;2023-02-19T13:51:55;96006.22;;;12.30;51.23
30682;BME280;17439;48.092;11.842;2023-02-19T13:54:48;95996.91;;;12.31;50.10
30682;BME280;17439;48.092;11.842;2023-02-19T13:57:25;96016.03;;;12.17;46.17
30682;BME280;17439;48.092;11.842;2023-02-19T13:59:56;96011.38;;;12.18;49.10
30682;BME280;17439;48.092;11.842;2023-02-19T14:02:27;96011.06;;;12.19;48.54
30682;BME280;17439;48.092;11.842;2023-02-19T14:04:57;96027.75;;;12.26;49.04
30682;BME280;17439;48.092;11.842;2023-02-19T14:09:57;96028.75;;;12.30;50.20
30682;BME280;17439;48.092;11.842;2023-02-19T14:12:32;96032.56;;;12.29;49.56
30682;BME280;17439;48.092;11.842;2023-02-19T14:15:39;96032.06;;;12.27;50.99
30682;BME280;17439;48.092;11.842;2023-02-19T14:18:40;96038.00;;;12.29;50.50
30682;BME280;17439;48.092;11.842;2023-02-19T14:21:37;96054.75;;;12.23;50.29
30682;BME280;17439;48.092;11.842;2023-02-19T14:24:10;96063.81;;;12.18;50.07
30682;BME280;17439;48.092;11.842;2023-02-19T14:26:38;96061.22;;;12.13;50.90